sensor_id;sensor_type;location;lat;lon;timestamp;temperature;humidity
67598;DHT22;62026;39.230;9.122;2022-10-16T00:01:52;22.10;66.30
67598;DHT22;62026;39.230;9.122;2022-10-16T00:04:17;22.10;66.20
67598;DHT22;62026;39.230;9.122;2022-10-16T00:06:43;22.10;66.20
67598;DHT22;62026;39.230;9.122;2022-10-16T00:09:09;22.00;66.30
67598;DHT22;62026;39.230;9.122;2022-10-16T00:11:36;22.00;66.20
67598;DHT22;62026;39.230;9.122;2022-10-16T00:14:04;22.00;66.30
67598;DHT22;62026;39.230;9.122;2022-10-16T00:16:33;22.00;66.30
67598;DHT22;62026;39.230;9.122;2022-10-16T00:18:59;22.00;66.20
67598;DHT22;62026;39.230;9.122;2022-10-16T00:21:26;21.90;66.10
67598;DHT22;62026;39.230;9.122;2022-10-16T00:23:54;22.00;66.30
67598;DHT22;62026;39.230;9.122;2022-10-16T00:26:21;21.90;66.40
67598;DHT22;62026;39.230;9.122;2022-10-16T00:28:48;21.90;66.20
67598;DHT22;62026;39.230;9.122;2022-10-16T00:31:15;21.90;66.30
67598;DHT22;62026;39.230;9.122;2022-10-16T00:33:42;21.90;66.40
67598;DHT22;62026;39.230;9.122;2022-10-16T00:36:09;21.90;66.40
67598;DHT22;62026;39.230;9.122;2022-10-16T00:38:37;21.80;66.40
67598;DHT22;62026;39.230;9.122;2022-10-16T00:41:04;21.80;66.40
67598;DHT22;62026;39.230;9.122;2022-10-16T00:48:42;21.80;66.40
67598;DHT22;62026;39.230;9.122;2022-10-16T00:51:11;21.80;66.50
67598;DHT22;62026;39.230;9.122;2022-10-16T00:53:37;21.80;66.50
67598;DHT22;62026;39.230;9.122;2022-10-16T00:56:03;21.80;66.50
67598;DHT22;62026;39.230;9.122;2022-10-16T00:58:29;21.80;66.50
67598;DHT22;62026;39.230;9.122;2022-10-16T01:00:55;21.80;66.60
67598;DHT22;62026;39.230;9.122;2022-10-16T01:03:26;21.70;66.60
67598;DHT22;62026;39.230;9.122;2022-10-16T01:08:49;21.70;66.70
67598;DHT22;62026;39.230;9.122;2022-10-16T01:11:29;21.70;66.60
67598;DHT22;62026;39.230;9.122;2022-10-16T01:13:58;21.70;66.60
67598;DHT22;62026;39.230;9.122;2022-10-16T01:19:01;21.70;66.60
67598;DHT22;62026;39.230;9.122;2022-10-16T01:21:35;21.70;66.60
67598;DHT22;62026;39.230;9.122;2022-10-16T01:29:30;21.60;66.70
67598;DHT22;62026;39.230;9.122;2022-10-16T01:31:58;21.60;66.70
67598;DHT22;62026;39.230;9.122;2022-10-16T01:34:35;21.60;66.90
67598;DHT22;62026;39.230;9.122;2022-10-16T01:37:11;21.60;66.90
67598;DHT22;62026;39.230;9.122;2022-10-16T01:39:41;21.60;66.90
67598;DHT22;62026;39.230;9.122;2022-10-16T01:42:12;21.60;67.00
67598;DHT22;62026;39.230;9.122;2022-10-16T01:44:42;21.60;66.90
67598;DHT22;62026;39.230;9.122;2022-10-16T01:47:10;21.50;67.00
67598;DHT22;62026;39.230;9.122;2022-10-16T01:49:39;21.50;67.00
67598;DHT22;62026;39.230;9.122;2022-10-16T01:52:11;21.50;66.80
67598;DHT22;62026;39.230;9.122;2022-10-16T01:54:43;21.50;66.70
67598;DHT22;62026;39.230;9.122;2022-10-16T01:57:13;21.50;66.70
67598;DHT22;62026;39.230;9.122;2022-10-16T01:59:44;21.50;66.70
67598;DHT22;62026;39.230;9.122;2022-10-16T02:02:14;21.40;66.80
67598;DHT22;62026;39.230;9.122;2022-10-16T02:04:44;21.40;66.90
67598;DHT22;62026;39.230;9.122;2022-10-16T02:07:13;21.40;66.90
67598;DHT22;62026;39.230;9.122;2022-10-16T02:09:39;21.40;66.90
67598;DHT22;62026;39.230;9.122;2022-10-16T02:12:07;21.40;66.80
67598;DHT22;62026;39.230;9.122;2022-10-16T02:14:38;21.30;66.80
67598;DHT22;62026;39.230;9.122;2022-10-16T02:17:10;21.30;66.70
67598;DHT22;62026;39.230;9.122;2022-10-16T02:19:38;21.30;66.80
67598;DHT22;62026;39.230;9.122;2022-10-16T02:22:05;21.30;66.80
67598;DHT22;62026;39.230;9.122;2022-10-16T02:30:30;21.20;66.70
67598;DHT22;62026;39.230;9.122;2022-10-16T02:33:14;21.20;66.70
67598;DHT22;62026;39.230;9.122;2022-10-16T02:35:43;21.20;66.80
67598;DHT22;62026;39.230;9.122;2022-10-16T02:38:11;21.20;66.80
67598;DHT22;62026;39.230;9.122;2022-10-16T02:40:39;21.20;66.80
67598;DHT22;62026;39.230;9.122;2022-10-16T02:43:06;21.20;66.80
67598;DHT22;62026;39.230;9.122;2022-10-16T02:45:32;21.20;66.90
67598;DHT22;62026;39.230;9.122;2022-10-16T02:47:58;21.20;66.90
67598;DHT22;62026;39.230;9.122;2022-10-16T02:50:24;21.10;67.00
67598;DHT22;62026;39.230;9.122;2022-10-16T02:52:50;21.10;67.20
67598;DHT22;62026;39.230;9.122;2022-10-16T02:55:16;21.10;67.10
67598;DHT22;62026;39.230;9.122;2022-10-16T02:57:42;21.10;67.10
67598;DHT22;62026;39.230;9.122;2022-10-16T03:00:09;21.10;67.10
67598;DHT22;62026;39.230;9.122;2022-10-16T03:02:37;21.10;67.20
67598;DHT22;62026;39.230;9.122;2022-10-16T03:05:03;21.10;67.20
67598;DHT22;62026;39.230;9.122;2022-10-16T03:07:29;21.10;67.30
67598;DHT22;62026;39.230;9.122;2022-10-16T03:09:55;21.10;67.30
67598;DHT22;62026;39.230;9.122;2022-10-16T03:12:21;21.10;67.30
67598;DHT22;62026;39.230;9.122;2022-10-16T03:14:47;21.10;67.50
67598;DHT22;62026;39.230;9.122;2022-10-16T03:17:13;21.10;67.40
67598;DHT22;62026;39.230;9.122;2022-10-16T03:19:42;21.10;67.50
67598;DHT22;62026;39.230;9.122;2022-10-16T03:22:07;21.10;67.40
67598;DHT22;62026;39.230;9.122;2022-10-16T03:24:33;21.10;67.60
67598;DHT22;62026;39.230;9.122;2022-10-16T03:26:59;21.00;67.50
67598;DHT22;62026;39.230;9.122;2022-10-16T03:29:25;21.00;67.50
67598;DHT22;62026;39.230;9.122;2022-10-16T03:31:53;21.00;67.50
67598;DHT22;62026;39.230;9.122;2022-10-16T03:34:18;21.00;67.40
67598;DHT22;62026;39.230;9.122;2022-10-16T03:36:44;21.00;67.50
67598;DHT22;62026;39.230;9.122;2022-10-16T03:39:10;21.00;67.30
67598;DHT22;62026;39.230;9.122;2022-10-16T03:41:36;20.90;67.20
67598;DHT22;62026;39.230;9.122;2022-10-16T03:44:02;20.90;67.20
67598;DHT22;62026;39.230;9.122;2022-10-16T03:46:28;20.90;67.30
67598;DHT22;62026;39.230;9.122;2022-10-16T03:48:55;20.90;67.10
67598;DHT22;62026;39.230;9.122;2022-10-16T03:51:21;20.90;67.00
67598;DHT22;62026;39.230;9.122;2022-10-16T03:53:47;20.90;66.80
67598;DHT22;62026;39.230;9.122;2022-10-16T03:56:13;20.80;66.90
67598;DHT22;62026;39.230;9.122;2022-10-16T03:58:38;20.80;66.80
67598;DHT22;62026;39.230;9.122;2022-10-16T04:01:04;20.80;66.70
67598;DHT22;62026;39.230;9.122;2022-10-16T04:03:30;20.80;66.70
67598;DHT22;62026;39.230;9.122;2022-10-16T04:05:56;20.80;66.60
67598;DHT22;62026;39.230;9.122;2022-10-16T04:08:22;20.80;66.70
67598;DHT22;62026;39.230;9.122;2022-10-16T04:10:48;20.80;66.80
67598;DHT22;62026;39.230;9.122;2022-10-16T04:13:14;20.80;66.80
67598;DHT22;62026;39.230;9.122;2022-10-16T04:15:40;20.80;66.80
67598;DHT22;62026;39.230;9.122;2022-10-16T04:18:06;20.70;66.40
67598;DHT22;62026;39.230;9.122;2022-10-16T04:20:32;20.80;65.60
67598;DHT22;62026;39.230;9.122;2022-10-16T04:22:59;20.70;64.90
67598;DHT22;62026;39.230;9.122;2022-10-16T04:25:24;20.70;64.90
67598;DHT22;62026;39.230;9.122;2022-10-16T04:27:52;20.70;64.80
67598;DHT22;62026;39.230;9.122;2022-10-16T04:30:19;20.80;65.60
67598;DHT22;62026;39.230;9.122;2022-10-16T04:32:49;20.70;66.10
67598;DHT22;62026;39.230;9.122;2022-10-16T04:35:19;20.70;66.40
67598;DHT22;62026;39.230;9.122;2022-10-16T04:37:46;20.70;66.60
67598;DHT22;62026;39.230;9.122;2022-10-16T04:40:12;20.70;66.70
67598;DHT22;62026;39.230;9.122;2022-10-16T04:42:38;20.70;66.90
67598;DHT22;62026;39.230;9.122;2022-10-16T04:45:05;20.70;66.90
67598;DHT22;62026;39.230;9.122;2022-10-16T04:47:32;20.70;67.00
67598;DHT22;62026;39.230;9.122;2022-10-16T04:49:58;20.70;67.00
67598;DHT22;62026;39.230;9.122;2022-10-16T04:52:28;20.70;67.10
67598;DHT22;62026;39.230;9.122;2022-10-16T04:54:54;20.70;67.00
67598;DHT22;62026;39.230;9.122;2022-10-16T04:57:21;20.70;66.90
67598;DHT22;62026;39.230;9.122;2022-10-16T04:59:46;20.70;66.90
67598;DHT22;62026;39.230;9.122;2022-10-16T05:02:12;20.70;66.90
67598;DHT22;62026;39.230;9.122;2022-10-16T05:04:38;20.70;66.80
67598;DHT22;62026;39.230;9.122;2022-10-16T05:07:04;20.70;66.80
67598;DHT22;62026;39.230;9.122;2022-10-16T05:09:30;20.70;66.70
67598;DHT22;62026;39.230;9.122;2022-10-16T05:11:56;20.70;66.50
67598;DHT22;62026;39.230;9.122;2022-10-16T05:14:22;20.70;66.60
67598;DHT22;62026;39.230;9.122;2022-10-16T05:16:48;20.70;66.60
67598;DHT22;62026;39.230;9.122;2022-10-16T05:19:14;20.70;66.70
67598;DHT22;62026;39.230;9.122;2022-10-16T05:21:40;20.70;66.80
67598;DHT22;62026;39.230;9.122;2022-10-16T05:24:06;20.60;66.70
67598;DHT22;62026;39.230;9.122;2022-10-16T05:26:32;20.60;66.80
67598;DHT22;62026;39.230;9.122;2022-10-16T05:28:58;20.60;66.70
67598;DHT22;62026;39.230;9.122;2022-10-16T05:31:23;20.60;66.80
67598;DHT22;62026;39.230;9.122;2022-10-16T05:33:49;20.60;66.70
67598;DHT22;62026;39.230;9.122;2022-10-16T05:36:15;20.60;66.70
67598;DHT22;62026;39.230;9.122;2022-10-16T05:38:43;20.60;66.80
67598;DHT22;62026;39.230;9.122;2022-10-16T05:41:09;20.60;66.60
67598;DHT22;62026;39.230;9.122;2022-10-16T05:43:35;20.60;66.60
67598;DHT22;62026;39.230;9.122;2022-10-16T05:46:02;20.60;66.70
67598;DHT22;62026;39.230;9.122;2022-10-16T05:48:30;20.60;66.80
67598;DHT22;62026;39.230;9.122;2022-10-16T05:51:03;20.60;66.80
67598;DHT22;62026;39.230;9.122;2022-10-16T05:53:33;20.60;66.80
67598;DHT22;62026;39.230;9.122;2022-10-16T05:56:00;20.70;66.80
67598;DHT22;62026;39.230;9.122;2022-10-16T05:58:35;20.70;66.80
67598;DHT22;62026;39.230;9.122;2022-10-16T06:01:03;20.70;66.80
67598;DHT22;62026;39.230;9.122;2022-10-16T06:03:32;20.70;67.00
67598;DHT22;62026;39.230;9.122;2022-10-16T06:05:59;20.70;66.80
67598;DHT22;62026;39.230;9.122;2022-10-16T06:08:32;20.80;66.90
67598;DHT22;62026;39.230;9.122;2022-10-16T06:11:04;20.80;66.80
67598;DHT22;62026;39.230;9.122;2022-10-16T06:13:32;20.90;66.70
67598;DHT22;62026;39.230;9.122;2022-10-16T06:15:59;21.00;66.50
67598;DHT22;62026;39.230;9.122;2022-10-16T06:18:26;21.00;66.30
67598;DHT22;62026;39.230;9.122;2022-10-16T06:20:53;21.00;66.10
67598;DHT22;62026;39.230;9.122;2022-10-16T06:23:20;21.10;65.90
67598;DHT22;62026;39.230;9.122;2022-10-16T06:25:46;21.10;66.00
67598;DHT22;62026;39.230;9.122;2022-10-16T06:28:13;21.20;65.80
67598;DHT22;62026;39.230;9.122;2022-10-16T06:30:40;21.30;65.60
67598;DHT22;62026;39.230;9.122;2022-10-16T06:33:06;21.30;65.30
67598;DHT22;62026;39.230;9.122;2022-10-16T06:35:32;21.20;65.20
67598;DHT22;62026;39.230;9.122;2022-10-16T06:37:58;21.30;65.00
67598;DHT22;62026;39.230;9.122;2022-10-16T06:40:24;21.40;64.90
67598;DHT22;62026;39.230;9.122;2022-10-16T06:42:50;21.40;64.60
67598;DHT22;62026;39.230;9.122;2022-10-16T06:45:17;21.50;64.50
67598;DHT22;62026;39.230;9.122;2022-10-16T06:47:43;21.60;64.50
67598;DHT22;62026;39.230;9.122;2022-10-16T06:50:09;21.60;64.30
67598;DHT22;62026;39.230;9.122;2022-10-16T06:52:34;21.70;64.00
67598;DHT22;62026;39.230;9.122;2022-10-16T06:55:00;21.80;63.70
67598;DHT22;62026;39.230;9.122;2022-10-16T06:57:26;21.80;63.70
67598;DHT22;62026;39.230;9.122;2022-10-16T06:59:52;21.70;63.70
67598;DHT22;62026;39.230;9.122;2022-10-16T07:02:18;21.70;64.00
67598;DHT22;62026;39.230;9.122;2022-10-16T07:04:44;21.70;64.10
67598;DHT22;62026;39.230;9.122;2022-10-16T07:07:10;21.70;64.20
67598;DHT22;62026;39.230;9.122;2022-10-16T07:09:35;21.90;63.90
67598;DHT22;62026;39.230;9.122;2022-10-16T07:12:01;22.10;63.70
67598;DHT22;62026;39.230;9.122;2022-10-16T07:14:27;22.30;63.30
67598;DHT22;62026;39.230;9.122;2022-10-16T07:16:53;22.50;63.00
67598;DHT22;62026;39.230;9.122;2022-10-16T07:19:19;22.60;63.00
67598;DHT22;62026;39.230;9.122;2022-10-16T07:21:45;22.70;63.20
67598;DHT22;62026;39.230;9.122;2022-10-16T07:24:12;22.70;63.10
67598;DHT22;62026;39.230;9.122;2022-10-16T07:26:42;22.70;63.50
67598;DHT22;62026;39.230;9.122;2022-10-16T07:29:13;22.70;63.60
67598;DHT22;62026;39.230;9.122;2022-10-16T07:31:41;22.70;63.90
67598;DHT22;62026;39.230;9.122;2022-10-16T07:34:08;22.80;63.70
67598;DHT22;62026;39.230;9.122;2022-10-16T07:36:35;23.00;63.70
67598;DHT22;62026;39.230;9.122;2022-10-16T07:39:01;23.10;63.50
67598;DHT22;62026;39.230;9.122;2022-10-16T07:41:27;23.40;63.10
67598;DHT22;62026;39.230;9.122;2022-10-16T07:43:54;23.70;62.50
67598;DHT22;62026;39.230;9.122;2022-10-16T07:46:22;23.80;62.30
67598;DHT22;62026;39.230;9.122;2022-10-16T07:48:48;23.70;62.70
67598;DHT22;62026;39.230;9.122;2022-10-16T07:51:15;23.70;63.00
67598;DHT22;62026;39.230;9.122;2022-10-16T07:53:43;23.80;63.30
67598;DHT22;62026;39.230;9.122;2022-10-16T07:56:09;23.90;63.00
67598;DHT22;62026;39.230;9.122;2022-10-16T07:58:35;23.90;62.90
67598;DHT22;62026;39.230;9.122;2022-10-16T08:01:05;24.00;62.90
67598;DHT22;62026;39.230;9.122;2022-10-16T08:03:33;24.30;62.80
67598;DHT22;62026;39.230;9.122;2022-10-16T08:05:59;24.30;63.00
67598;DHT22;62026;39.230;9.122;2022-10-16T08:08:26;24.40;63.20
67598;DHT22;62026;39.230;9.122;2022-10-16T08:10:52;24.50;63.10
67598;DHT22;62026;39.230;9.122;2022-10-16T08:13:19;24.50;63.40
67598;DHT22;62026;39.230;9.122;2022-10-16T08:15:45;24.60;63.50
67598;DHT22;62026;39.230;9.122;2022-10-16T08:18:12;24.90;62.70
67598;DHT22;62026;39.230;9.122;2022-10-16T08:20:39;24.90;63.40
67598;DHT22;62026;39.230;9.122;2022-10-16T08:23:05;24.90;63.30
67598;DHT22;62026;39.230;9.122;2022-10-16T08:25:34;24.80;63.90
67598;DHT22;62026;39.230;9.122;2022-10-16T08:28:05;24.90;64.10
67598;DHT22;62026;39.230;9.122;2022-10-16T08:30:32;24.90;64.40
67598;DHT22;62026;39.230;9.122;2022-10-16T08:32:59;24.90;64.40
67598;DHT22;62026;39.230;9.122;2022-10-16T08:35:25;25.00;64.50
67598;DHT22;62026;39.230;9.122;2022-10-16T08:37:51;25.00;64.50
67598;DHT22;62026;39.230;9.122;2022-10-16T08:48:18;25.20;64.60
67598;DHT22;62026;39.230;9.122;2022-10-16T08:50:46;25.10;64.70
67598;DHT22;62026;39.230;9.122;2022-10-16T08:53:16;25.10;64.90
67598;DHT22;62026;39.230;9.122;2022-10-16T08:55:50;25.40;64.40
67598;DHT22;62026;39.230;9.122;2022-10-16T08:58:18;25.60;63.90
67598;DHT22;62026;39.230;9.122;2022-10-16T09:01:11;25.50;63.60
67598;DHT22;62026;39.230;9.122;2022-10-16T09:03:44;25.50;64.00
67598;DHT22;62026;39.230;9.122;2022-10-16T09:14:42;25.60;63.10
67598;DHT22;62026;39.230;9.122;2022-10-16T09:19:56;25.70;62.50
67598;DHT22;62026;39.230;9.122;2022-10-16T09:22:46;25.80;61.00
67598;DHT22;62026;39.230;9.122;2022-10-16T09:25:13;25.70;60.50
67598;DHT22;62026;39.230;9.122;2022-10-16T09:27:42;25.70;61.20
67598;DHT22;62026;39.230;9.122;2022-10-16T09:30:14;25.60;62.20
67598;DHT22;62026;39.230;9.122;2022-10-16T09:32:43;25.50;61.60
67598;DHT22;62026;39.230;9.122;2022-10-16T09:35:13;25.60;61.90
67598;DHT22;62026;39.230;9.122;2022-10-16T09:37:45;25.60;62.40
67598;DHT22;62026;39.230;9.122;2022-10-16T09:40:24;25.50;62.30
67598;DHT22;62026;39.230;9.122;2022-10-16T09:42:57;25.50;62.00
67598;DHT22;62026;39.230;9.122;2022-10-16T09:45:29;25.50;61.70
67598;DHT22;62026;39.230;9.122;2022-10-16T09:47:54;25.50;61.50
67598;DHT22;62026;39.230;9.122;2022-10-16T09:50:27;25.50;60.50
67598;DHT22;62026;39.230;9.122;2022-10-16T09:53:13;25.50;60.40
67598;DHT22;62026;39.230;9.122;2022-10-16T09:55:49;25.40;59.40
67598;DHT22;62026;39.230;9.122;2022-10-16T09:58:16;25.40;58.70
67598;DHT22;62026;39.230;9.122;2022-10-16T10:00:48;25.50;59.50
67598;DHT22;62026;39.230;9.122;2022-10-16T10:03:35;25.40;59.80
67598;DHT22;62026;39.230;9.122;2022-10-16T10:06:26;25.20;60.20
67598;DHT22;62026;39.230;9.122;2022-10-16T10:08:53;25.30;58.60
67598;DHT22;62026;39.230;9.122;2022-10-16T10:14:15;25.30;57.00
67598;DHT22;62026;39.230;9.122;2022-10-16T10:16:43;25.30;57.60
67598;DHT22;62026;39.230;9.122;2022-10-16T10:19:27;25.30;57.30
67598;DHT22;62026;39.230;9.122;2022-10-16T10:21:53;25.20;58.20
67598;DHT22;62026;39.230;9.122;2022-10-16T10:24:19;25.20;58.70
67598;DHT22;62026;39.230;9.122;2022-10-16T10:26:57;25.30;59.00
67598;DHT22;62026;39.230;9.122;2022-10-16T10:37:55;25.10;56.10
67598;DHT22;62026;39.230;9.122;2022-10-16T10:40:54;24.90;58.40
67598;DHT22;62026;39.230;9.122;2022-10-16T10:46:50;24.90;58.20
67598;DHT22;62026;39.230;9.122;2022-10-16T10:52:02;25.00;59.30
67598;DHT22;62026;39.230;9.122;2022-10-16T10:54:33;24.90;59.30
67598;DHT22;62026;39.230;9.122;2022-10-16T11:02:41;24.70;60.40
67598;DHT22;62026;39.230;9.122;2022-10-16T11:05:18;24.60;61.10
67598;DHT22;62026;39.230;9.122;2022-10-16T11:08:00;24.60;61.20
67598;DHT22;62026;39.230;9.122;2022-10-16T11:10:49;24.50;61.10
67598;DHT22;62026;39.230;9.122;2022-10-16T11:13:33;24.50;61.50
67598;DHT22;62026;39.230;9.122;2022-10-16T11:16:15;24.50;62.40
67598;DHT22;62026;39.230;9.122;2022-10-16T11:18:49;24.50;62.30
67598;DHT22;62026;39.230;9.122;2022-10-16T11:21:17;24.50;62.90
67598;DHT22;62026;39.230;9.122;2022-10-16T11:26:27;24.40;64.20
67598;DHT22;62026;39.230;9.122;2022-10-16T11:28:58;24.40;64.70
67598;DHT22;62026;39.230;9.122;2022-10-16T11:31:41;24.40;65.00
67598;DHT22;62026;39.230;9.122;2022-10-16T11:34:24;24.50;65.00
67598;DHT22;62026;39.230;9.122;2022-10-16T11:39:41;24.20;65.90
67598;DHT22;62026;39.230;9.122;2022-10-16T11:42:19;24.30;66.20
67598;DHT22;62026;39.230;9.122;2022-10-16T11:48:12;24.20;66.10
67598;DHT22;62026;39.230;9.122;2022-10-16T11:50:57;24.10;67.10
67598;DHT22;62026;39.230;9.122;2022-10-16T11:56:15;24.00;67.20
67598;DHT22;62026;39.230;9.122;2022-10-16T11:58:50;24.20;67.00
67598;DHT22;62026;39.230;9.122;2022-10-16T12:09:30;24.10;67.10
67598;DHT22;62026;39.230;9.122;2022-10-16T12:11:58;24.10;67.30
67598;DHT22;62026;39.230;9.122;2022-10-16T12:22:41;23.90;66.20
67598;DHT22;62026;39.230;9.122;2022-10-16T12:25:23;23.90;65.80
67598;DHT22;62026;39.230;9.122;2022-10-16T12:27:54;23.90;66.10
67598;DHT22;62026;39.230;9.122;2022-10-16T12:30:26;23.90;66.40
67598;DHT22;62026;39.230;9.122;2022-10-16T12:33:36;23.90;66.60
67598;DHT22;62026;39.230;9.122;2022-10-16T12:35:45;23.80;66.20
67598;DHT22;62026;39.230;9.122;2022-10-16T12:38:15;23.80;66.20
67598;DHT22;62026;39.230;9.122;2022-10-16T12:41:01;23.80;66.80
67598;DHT22;62026;39.230;9.122;2022-10-16T12:48:34;23.90;66.90
67598;DHT22;62026;39.230;9.122;2022-10-16T12:56:49;23.90;65.70
67598;DHT22;62026;39.230;9.122;2022-10-16T12:59:35;23.80;65.90
67598;DHT22;62026;39.230;9.122;2022-10-16T13:16:44;24.00;66.70
67598;DHT22;62026;39.230;9.122;2022-10-16T13:19:26;23.90;66.90
67598;DHT22;62026;39.230;9.122;2022-10-16T13:30:24;23.90;66.60
67598;DHT22;62026;39.230;9.122;2022-10-16T13:33:02;24.00;66.10
67598;DHT22;62026;39.230;9.122;2022-10-16T13:35:30;24.00;66.10
67598;DHT22;62026;39.230;9.122;2022-10-16T13:38:40;23.90;65.80
67598;DHT22;62026;39.230;9.122;2022-10-16T13:40:48;23.90;65.60
67598;DHT22;62026;39.230;9.122;2022-10-16T13:43:16;24.00;65.60
67598;DHT22;62026;39.230;9.122;2022-10-16T13:45:52;24.00;65.00
67598;DHT22;62026;39.230;9.122;2022-10-16T13:48:20;24.00;64.70
67598;DHT22;62026;39.230;9.122;2022-10-16T13:50:58;23.90;64.30
67598;DHT22;62026;39.230;9.122;2022-10-16T13:53:35;23.90;64.20
67598;DHT22;62026;39.230;9.122;2022-10-16T13:56:06;23.90;64.70
67598;DHT22;62026;39.230;9.122;2022-10-16T13:58:35;24.00;65.40
67598;DHT22;62026;39.230;9.122;2022-10-16T14:01:02;24.00;65.20
67598;DHT22;62026;39.230;9.122;2022-10-16T14:03:30;24.00;65.30
67598;DHT22;62026;39.230;9.122;2022-10-16T14:06:02;23.90;65.80
67598;DHT22;62026;39.230;9.122;2022-10-16T14:08:32;23.90;66.10
67598;DHT22;62026;39.230;9.122;2022-10-16T14:10:59;23.90;66.30
67598;DHT22;62026;39.230;9.122;2022-10-16T14:13:47;23.90;65.70
67598;DHT22;62026;39.230;9.122;2022-10-16T14:16:31;23.80;66.60
67598;DHT22;62026;39.230;9.122;2022-10-16T14:19:06;23.90;66.80
67598;DHT22;62026;39.230;9.122;2022-10-16T14:21:40;23.90;66.60
67598;DHT22;62026;39.230;9.122;2022-10-16T14:24:13;24.00;66.70
67598;DHT22;62026;39.230;9.122;2022-10-16T14:26:47;23.90;66.60
67598;DHT22;62026;39.230;9.122;2022-10-16T14:29:18;24.00;66.20
67598;DHT22;62026;39.230;9.122;2022-10-16T14:31:54;24.00;65.80
67598;DHT22;62026;39.230;9.122;2022-10-16T14:34:22;23.90;65.60
67598;DHT22;62026;39.230;9.122;2022-10-16T14:36:58;23.90;65.70
67598;DHT22;62026;39.230;9.122;2022-10-16T14:39:27;23.90;65.50
67598;DHT22;62026;39.230;9.122;2022-10-16T14:41:55;23.80;65.80
67598;DHT22;62026;39.230;9.122;2022-10-16T14:44:25;23.80;65.90
67598;DHT22;62026;39.230;9.122;2022-10-16T14:46:54;23.80;65.70
67598;DHT22;62026;39.230;9.122;2022-10-16T14:49:20;23.80;66.10
67598;DHT22;62026;39.230;9.122;2022-10-16T14:51:48;23.80;66.20
67598;DHT22;62026;39.230;9.122;2022-10-16T14:54:16;23.90;66.40
67598;DHT22;62026;39.230;9.122;2022-10-16T14:56:45;23.90;66.30
67598;DHT22;62026;39.230;9.122;2022-10-16T14:59:18;23.90;66.10
67598;DHT22;62026;39.230;9.122;2022-10-16T15:04:46;23.70;66.40
67598;DHT22;62026;39.230;9.122;2022-10-16T15:07:13;23.70;66.70
67598;DHT22;62026;39.230;9.122;2022-10-16T15:09:39;23.60;66.30
67598;DHT22;62026;39.230;9.122;2022-10-16T15:12:05;23.60;66.30
67598;DHT22;62026;39.230;9.122;2022-10-16T15:14:31;23.60;66.40
67598;DHT22;62026;39.230;9.122;2022-10-16T15:16:57;23.60;66.40
67598;DHT22;62026;39.230;9.122;2022-10-16T15:19:23;23.50;66.70
67598;DHT22;62026;39.230;9.122;2022-10-16T15:21:50;23.40;67.00
67598;DHT22;62026;39.230;9.122;2022-10-16T15:24:16;23.50;67.00
67598;DHT22;62026;39.230;9.122;2022-10-16T15:26:42;23.50;67.30
67598;DHT22;62026;39.230;9.122;2022-10-16T15:29:08;23.50;67.60
67598;DHT22;62026;39.230;9.122;2022-10-16T15:31:34;23.40;67.80
67598;DHT22;62026;39.230;9.122;2022-10-16T15:34:00;23.40;67.90
67598;DHT22;62026;39.230;9.122;2022-10-16T15:36:33;23.30;68.40
67598;DHT22;62026;39.230;9.122;2022-10-16T15:39:23;23.40;68.30
67598;DHT22;62026;39.230;9.122;2022-10-16T15:41:48;23.40;68.00
67598;DHT22;62026;39.230;9.122;2022-10-16T15:44:19;23.40;68.20
67598;DHT22;62026;39.230;9.122;2022-10-16T15:46:46;23.40;68.50
67598;DHT22;62026;39.230;9.122;2022-10-16T15:49:12;23.40;68.50
67598;DHT22;62026;39.230;9.122;2022-10-16T15:51:39;23.30;68.80
67598;DHT22;62026;39.230;9.122;2022-10-16T15:54:05;23.20;68.90
67598;DHT22;62026;39.230;9.122;2022-10-16T15:56:31;23.20;69.20
67598;DHT22;62026;39.230;9.122;2022-10-16T15:59:01;23.20;69.10
67598;DHT22;62026;39.230;9.122;2022-10-16T16:01:28;23.30;69.20
67598;DHT22;62026;39.230;9.122;2022-10-16T16:03:57;23.20;69.40
67598;DHT22;62026;39.230;9.122;2022-10-16T16:06:23;23.10;69.80
67598;DHT22;62026;39.230;9.122;2022-10-16T16:08:52;23.10;69.90
67598;DHT22;62026;39.230;9.122;2022-10-16T16:11:19;23.10;70.10
67598;DHT22;62026;39.230;9.122;2022-10-16T16:13:47;23.10;70.20
67598;DHT22;62026;39.230;9.122;2022-10-16T16:16:14;23.10;70.20
67598;DHT22;62026;39.230;9.122;2022-10-16T16:18:42;23.10;70.30
67598;DHT22;62026;39.230;9.122;2022-10-16T16:21:10;23.10;70.30
67598;DHT22;62026;39.230;9.122;2022-10-16T16:23:37;23.00;70.40
67598;DHT22;62026;39.230;9.122;2022-10-16T16:28:35;23.10;70.70
67598;DHT22;62026;39.230;9.122;2022-10-16T16:31:02;23.00;70.60
67598;DHT22;62026;39.230;9.122;2022-10-16T16:33:28;23.00;70.70
67598;DHT22;62026;39.230;9.122;2022-10-16T16:35:57;23.00;70.70
67598;DHT22;62026;39.230;9.122;2022-10-16T16:38:24;23.10;70.50
67598;DHT22;62026;39.230;9.122;2022-10-16T16:40:50;23.00;70.40
67598;DHT22;62026;39.230;9.122;2022-10-16T16:43:17;23.00;70.70
67598;DHT22;62026;39.230;9.122;2022-10-16T16:45:43;23.00;70.50
67598;DHT22;62026;39.230;9.122;2022-10-16T16:48:09;23.00;70.60
67598;DHT22;62026;39.230;9.122;2022-10-16T16:50:36;23.00;70.60
67598;DHT22;62026;39.230;9.122;2022-10-16T16:53:02;23.00;70.90
67598;DHT22;62026;39.230;9.122;2022-10-16T16:55:28;23.00;70.70
67598;DHT22;62026;39.230;9.122;2022-10-16T16:57:55;23.00;70.60
67598;DHT22;62026;39.230;9.122;2022-10-16T17:00:22;23.00;70.50
67598;DHT22;62026;39.230;9.122;2022-10-16T17:02:49;23.00;70.20
67598;DHT22;62026;39.230;9.122;2022-10-16T17:05:16;23.00;69.80
67598;DHT22;62026;39.230;9.122;2022-10-16T17:07:42;22.90;69.50
67598;DHT22;62026;39.230;9.122;2022-10-16T17:10:08;22.90;69.10
67598;DHT22;62026;39.230;9.122;2022-10-16T17:12:35;22.90;68.90
67598;DHT22;62026;39.230;9.122;2022-10-16T17:15:01;22.90;68.70
67598;DHT22;62026;39.230;9.122;2022-10-16T17:17:27;22.90;68.60
67598;DHT22;62026;39.230;9.122;2022-10-16T17:19:53;23.00;68.80
67598;DHT22;62026;39.230;9.122;2022-10-16T17:22:19;23.00;68.60
67598;DHT22;62026;39.230;9.122;2022-10-16T17:24:48;23.00;68.40
67598;DHT22;62026;39.230;9.122;2022-10-16T17:27:20;22.90;68.20
67598;DHT22;62026;39.230;9.122;2022-10-16T17:29:49;22.90;68.40
67598;DHT22;62026;39.230;9.122;2022-10-16T17:32:16;22.90;67.80
67598;DHT22;62026;39.230;9.122;2022-10-16T17:34:42;22.90;67.90
67598;DHT22;62026;39.230;9.122;2022-10-16T17:37:08;23.00;67.60
67598;DHT22;62026;39.230;9.122;2022-10-16T17:39:34;23.00;67.40
67598;DHT22;62026;39.230;9.122;2022-10-16T17:42:00;22.90;67.50
67598;DHT22;62026;39.230;9.122;2022-10-16T17:44:27;23.00;67.60
67598;DHT22;62026;39.230;9.122;2022-10-16T17:46:53;23.00;67.30
67598;DHT22;62026;39.230;9.122;2022-10-16T17:49:19;23.00;67.20
67598;DHT22;62026;39.230;9.122;2022-10-16T17:51:48;23.00;67.10
67598;DHT22;62026;39.230;9.122;2022-10-16T17:54:18;23.00;66.80